Time;durP1;ratioP1;P1;durP2;ratioP2;P2;SDS_P1;SDS_P2;PMS_P1;PMS_P2;Temp;Humidity;BMP_temperature;BMP_pressure;BME280_temperature;BME280_humidity;BME280_pressure;Samples;Min_cycle;Max_cycle;Signal;HPM_P1;HPM_P2
2023/09/18 00:00:46;;;;;;;24.60;20.25;;;16.60;99.90;;;;;;5072670;28;20052;-46
2023/09/18 00:03:12;;;;;;;25.67;20.92;;;16.60;99.90;;;;;;5072990;28;20066;-47
2023/09/18 00:05:37;;;;;;;26.33;21.42;;;16.60;99.90;;;;;;5073113;28;20422;-45
2023/09/18 00:08:03;;;;;;;26.42;21.42;;;16.70;99.90;;;;;;5072830;28;20370;-48
2023/09/18 00:10:30;;;;;;;27.35;21.65;;;16.60;99.90;;;;;;5072518;28;20040;-47
2023/09/18 00:12:56;;;;;;;27.63;21.85;;;16.70;99.90;;;;;;5072826;28;20064;-47
2023/09/18 00:15:22;;;;;;;26.33;20.08;;;16.60;99.90;;;;;;5072801;28;20044;-46
2023/09/18 00:17:48;;;;;;;26.00;21.08;;;16.60;99.90;;;;;;5072673;28;20037;-48
2023/09/18 00:20:13;;;;;;;25.33;21.25;;;16.60;99.90;;;;;;5072785;28;20044;-50
2023/09/18 00:22:39;;;;;;;24.85;20.20;;;16.60;99.90;;;;;;5072463;28;20040;-49
2023/09/18 00:25:05;;;;;;;24.80;21.10;;;16.60;99.90;;;;;;5072698;28;20036;-49
2023/09/18 00:27:32;;;;;;;24.83;20.73;;;16.60;99.90;;;;;;5072350;28;20052;-47
2023/09/18 00:29:58;;;;;;;24.20;19.85;;;16.50;99.90;;;;;;5071786;28;20041;-48
2023/09/18 00:32:24;;;;;;;23.33;19.50;;;16.60;99.90;;;;;;5072602;28;20043;-48
2023/09/18 00:34:49;;;;;;;24.02;19.77;;;16.60;99.90;;;;;;5072306;28;20062;-51
2023/09/18 00:37:16;;;;;;;24.38;19.77;;;16.50;99.90;;;;;;5072406;28;20032;-46
2023/09/18 00:39:43;;;;;;;26.92;20.90;;;16.60;99.90;;;;;;5072136;28;20084;-45
2023/09/18 00:42:13;;;;;;;25.50;20.50;;;16.60;99.90;;;;;;5072486;28;20037;-45
2023/09/18 00:44:42;;;;;;;23.45;19.98;;;16.60;99.90;;;;;;5070927;28;20056;-45
2023/09/18 00:47:09;;;;;;;25.02;20.08;;;16.60;99.90;;;;;;5072217;28;20071;-47
2023/09/18 00:49:36;;;;;;;24.30;20.05;;;16.70;99.90;;;;;;5071906;28;20071;-46
2023/09/18 00:52:03;;;;;;;27.08;21.08;;;16.60;99.90;;;;;;5072318;28;20048;-46
2023/09/18 00:54:30;;;;;;;25.67;20.85;;;16.60;99.90;;;;;;5070755;28;20120;-45
2023/09/18 00:56:57;;;;;;;27.92;22.27;;;16.60;99.90;;;;;;5072113;28;20044;-46
2023/09/18 00:59:22;;;;;;;26.63;21.30;;;16.70;99.90;;;;;;5072282;28;20059;-47
2023/09/18 01:01:50;;;;;;;26.83;21.20;;;16.60;99.90;;;;;;5072112;28;20045;-48
2023/09/18 01:04:17;;;;;;;27.33;21.98;;;16.50;99.90;;;;;;5071973;28;20105;-47
2023/09/18 01:06:43;;;;;;;27.35;21.30;;;16.70;99.90;;;;;;5072187;28;20049;-49
2023/09/18 01:09:12;;;;;;;27.27;23.02;;;16.70;99.90;;;;;;5070443;28;20049;-47
2023/09/18 01:12:12;;;;;;;30.23;23.50;;;16.60;99.90;;;;;;5070535;28;20041;-50
2023/09/18 01:14:49;;;;;;;27.58;21.90;;;16.60;99.90;;;;;;5072032;28;20036;-48
2023/09/18 01:17:16;;;;;;;30.58;23.73;;;16.70;99.90;;;;;;5071920;28;20043;-47
2023/09/18 01:19:46;;;;;;;34.05;23.85;;;16.60;99.90;;;;;;5070582;28;20048;-46
2023/09/18 01:22:19;;;;;;;32.95;25.05;;;16.70;99.90;;;;;;5071798;28;20040;-46
2023/09/18 01:24:49;;;;;;;28.73;23.00;;;16.60;99.90;;;;;;5071987;28;20083;-47
2023/09/18 01:27:17;;;;;;;33.47;25.13;;;16.70;99.90;;;;;;5071730;28;20063;-45
2023/09/18 01:29:46;;;;;;;33.25;25.52;;;16.70;99.90;;;;;;5071572;28;20059;-49
2023/09/18 01:32:13;;;;;;;36.47;27.58;;;16.60;99.90;;;;;;5071814;28;20045;-45
2023/09/18 01:34:49;;;;;;;32.88;26.70;;;16.70;99.90;;;;;;5071736;28;20086;-49
2023/09/18 01:37:21;;;;;;;35.47;27.38;;;16.60;99.90;;;;;;5071532;28;20036;-46
2023/09/18 01:39:49;;;;;;;38.60;28.58;;;16.70;99.90;;;;;;5071543;28;20400;-46
2023/09/18 01:42:15;;;;;;;38.83;28.25;;;16.60;99.90;;;;;;5074321;28;20500;-46
2023/09/18 01:44:41;;;;;;;35.20;28.23;;;16.70;99.90;;;;;;5075319;28;20079;-45
2023/09/18 01:47:09;;;;;;;37.45;28.90;;;16.50;99.90;;;;;;5075452;28;20121;-45
2023/09/18 01:49:36;;;;;;;38.05;29.60;;;16.70;99.90;;;;;;5075087;28;20150;-46
2023/09/18 01:52:04;;;;;;;35.20;27.90;;;16.70;99.90;;;;;;5075113;28;20488;-45
2023/09/18 01:54:30;;;;;;;40.60;28.67;;;16.50;99.90;;;;;;5075026;28;20473;-45
2023/09/18 01:56:56;;;;;;;38.90;28.45;;;16.60;99.90;;;;;;5075307;28;20047;-46
2023/09/18 01:59:23;;;;;;;36.58;28.58;;;16.50;99.90;;;;;;5074893;28;20037;-45
2023/09/18 02:01:50;;;;;;;38.85;29.05;;;16.50;99.90;;;;;;5075321;28;20052;-45
2023/09/18 02:04:16;;;;;;;37.63;28.92;;;16.50;99.90;;;;;;5075361;28;20044;-45
2023/09/18 02:06:42;;;;;;;40.80;29.92;;;16.60;99.90;;;;;;5074888;28;20051;-46
2023/09/18 02:09:08;;;;;;;37.03;28.67;;;16.60;99.90;;;;;;5075017;28;20040;-46
2023/09/18 02:11:38;;;;;;;36.03;28.67;;;16.50;99.90;;;;;;5075143;28;20375;-46
2023/09/18 02:14:05;;;;;;;40.15;29.95;;;16.50;99.90;;;;;;5074992;28;20033;-46
2023/09/18 02:16:37;;;;;;;36.13;28.63;;;16.60;99.90;;;;;;5074848;28;20384;-45
2023/09/18 02:19:03;;;;;;;35.75;29.17;;;16.50;99.90;;;;;;5074791;28;20048;-46
2023/09/18 02:21:29;;;;;;;39.13;29.23;;;16.60;99.90;;;;;;5073654;28;20064;-47
2023/09/18 02:23:55;;;;;;;35.45;28.10;;;16.50;99.90;;;;;;5073493;28;20127;-45
2023/09/18 02:26:22;;;;;;;39.45;29.23;;;16.70;99.90;;;;;;5073719;28;20128;-46
2023/09/18 02:28:48;;;;;;;35.72;28.40;;;16.70;99.90;;;;;;5074464;28;20044;-48
2023/09/18 02:31:14;;;;;;;37.50;28.48;;;16.70;99.90;;;;;;5074612;28;20040;-48
2023/09/18 02:33:40;;;;;;;34.45;28.00;;;16.60;99.90;;;;;;5074358;28;20043;-50
2023/09/18 02:36:06;;;;;;;34.90;28.00;;;16.60;99.90;;;;;;5074742;28;20452;-47
2023/09/18 02:38:33;;;;;;;35.70;28.85;;;16.60;99.90;;;;;;5074643;28;20115;-49
2023/09/18 02:40:59;;;;;;;36.38;29.40;;;16.60;99.90;;;;;;5074421;28;20036;-46
2023/09/18 02:43:25;;;;;;;39.65;29.20;;;16.50;99.90;;;;;;5074510;28;20434;-46
2023/09/18 02:45:51;;;;;;;37.15;29.27;;;16.50;99.90;;;;;;5074403;28;20112;-45
2023/09/18 02:48:18;;;;;;;39.95;30.25;;;16.50;99.90;;;;;;5074307;28;20044;-46
2023/09/18 02:50:44;;;;;;;36.15;28.60;;;16.60;99.90;;;;;;5074349;28;20040;-46
2023/09/18 02:53:20;;;;;;;37.88;29.33;;;16.60;99.90;;;;;;5074128;28;20044;-47
2023/09/18 02:55:51;;;;;;;36.75;28.52;;;16.70;99.90;;;;;;5074254;28;20051;-45
2023/09/18 02:58:19;;;;;;;38.67;28.20;;;16.70;99.90;;;;;;5072964;28;20385;-46
2023/09/18 03:00:49;;;;;;;38.08;28.80;;;16.70;99.90;;;;;;5073930;28;20056;-48
2023/09/18 03:03:15;;;;;;;34.97;27.65;;;16.80;99.90;;;;;;5074150;28;20068;-49
2023/09/18 03:05:42;;;;;;;34.10;28.70;;;16.70;99.90;;;;;;5072931;28;20056;-46
2023/09/18 03:08:09;;;;;;;35.30;28.90;;;16.80;99.90;;;;;;5074023;28;20047;-46
2023/09/18 03:10:36;;;;;;;34.65;28.45;;;16.80;99.90;;;;;;5073983;28;20078;-47
2023/09/18 03:13:05;;;;;;;35.83;28.13;;;16.80;99.90;;;;;;5073766;28;20055;-46
2023/09/18 03:15:31;;;;;;;35.03;28.05;;;16.80;99.90;;;;;;5073678;28;20046;-47
2023/09/18 03:18:00;;;;;;;36.38;28.10;;;16.80;99.90;;;;;;5073578;28;20489;-48
2023/09/18 03:20:27;;;;;;;32.83;27.15;;;16.80;99.90;;;;;;5073566;28;20577;-46
2023/09/18 03:22:58;;;;;;;36.60;28.20;;;16.80;99.90;;;;;;5073731;28;20072;-48
2023/09/18 03:25:24;;;;;;;33.45;28.65;;;16.80;99.90;;;;;;5072215;28;20044;-47
2023/09/18 03:27:52;;;;;;;33.50;28.15;;;16.90;99.90;;;;;;5073338;28;20037;-48
2023/09/18 03:30:21;;;;;;;33.97;28.17;;;16.90;99.90;;;;;;5073544;28;20384;-49
2023/09/18 03:32:50;;;;;;;35.00;27.45;;;16.90;99.90;;;;;;5073510;28;20124;-45
2023/09/18 03:35:19;;;;;;;37.70;28.92;;;16.90;99.90;;;;;;5072415;28;20036;-47
2023/09/18 03:37:50;;;;;;;38.65;30.45;;;16.80;99.90;;;;;;5073258;28;20090;-48
2023/09/18 03:40:18;;;;;;;33.95;27.42;;;16.70;99.90;;;;;;5073056;28;20131;-46
2023/09/18 03:42:44;;;;;;;34.65;28.88;;;16.90;99.90;;;;;;5073330;28;20029;-46
2023/09/18 03:45:10;;;;;;;34.47;28.20;;;16.80;99.90;;;;;;5073321;28;20036;-47
2023/09/18 03:47:38;;;;;;;36.20;29.55;;;16.90;99.90;;;;;;5072077;28;20048;-46
2023/09/18 03:50:07;;;;;;;34.17;27.50;;;16.80;99.90;;;;;;5072980;28;20036;-45
2023/09/18 03:52:33;;;;;;;34.20;28.13;;;17.00;99.90;;;;;;5073244;28;20366;-49
2023/09/18 03:54:59;;;;;;;30.67;26.67;;;16.90;99.90;;;;;;5073112;28;20169;-46
2023/09/18 03:57:24;;;;;;;32.58;27.05;;;16.90;99.90;;;;;;5073077;28;20036;-45
2023/09/18 03:59:50;;;;;;;33.65;27.40;;;17.00;99.90;;;;;;5072912;28;20105;-48
2023/09/18 04:02:16;;;;;;;34.17;27.83;;;16.80;99.90;;;;;;5073072;28;20055;-49
2023/09/18 04:04:42;;;;;;;31.70;25.75;;;16.80;99.90;;;;;;5072189;28;20550;-49
2023/09/18 04:07:08;;;;;;;30.90;25.65;;;16.80;99.90;;;;;;5072542;28;20401;-46
2023/09/18 04:09:37;;;;;;;29.85;25.40;;;17.00;99.90;;;;;;5071230;28;20041;-45
2023/09/18 04:12:05;;;;;;;33.28;26.73;;;17.00;99.90;;;;;;5071210;28;20119;-45
2023/09/18 04:14:32;;;;;;;32.72;26.50;;;17.00;99.90;;;;;;5072668;28;20046;-46
2023/09/18 04:16:57;;;;;;;31.17;25.98;;;16.90;99.90;;;;;;5072749;28;20037;-46
2023/09/18 04:19:23;;;;;;;29.50;24.60;;;16.90;99.90;;;;;;5072444;28;20535;-47
2023/09/18 04:21:49;;;;;;;30.15;24.65;;;17.00;99.90;;;;;;5072586;28;20040;-46
2023/09/18 04:24:14;;;;;;;31.00;25.50;;;16.90;99.90;;;;;;5072407;28;20044;-46
2023/09/18 04:26:40;;;;;;;28.17;23.67;;;17.00;99.90;;;;;;5072649;28;20052;-48
2023/09/18 04:29:06;;;;;;;28.30;23.48;;;17.00;99.90;;;;;;5072237;28;20076;-46
2023/09/18 04:31:32;;;;;;;27.08;23.30;;;17.00;99.90;;;;;;5072402;28;20045;-45
2023/09/18 04:33:57;;;;;;;27.17;22.83;;;17.10;99.90;;;;;;5072338;28;20041;-50
2023/09/18 04:36:24;;;;;;;28.77;23.42;;;17.00;99.90;;;;;;5072617;28;20108;-48
2023/09/18 04:38:50;;;;;;;29.52;22.80;;;17.00;99.90;;;;;;5072261;28;20182;-47
2023/09/18 04:41:16;;;;;;;28.92;23.65;;;17.20;99.90;;;;;;5072292;28;20059;-48
2023/09/18 04:43:45;;;;;;;27.88;24.02;;;17.20;99.90;;;;;;5072364;28;20044;-47
2023/09/18 04:46:11;;;;;;;28.08;23.20;;;17.20;99.90;;;;;;5072425;28;20510;-45
2023/09/18 04:48:37;;;;;;;25.92;21.88;;;17.10;99.90;;;;;;5072160;28;20076;-47
2023/09/18 04:51:06;;;;;;;27.00;22.05;;;17.20;99.90;;;;;;5072310;28;20074;-46
2023/09/18 04:53:32;;;;;;;28.70;22.58;;;17.20;99.90;;;;;;5071060;28;20475;-47
2023/09/18 04:55:58;;;;;;;26.20;21.33;;;17.10;99.90;;;;;;5072219;28;20044;-46
2023/09/18 04:58:24;;;;;;;27.77;20.58;;;17.20;99.90;;;;;;5072200;28;20037;-45
2023/09/18 05:00:57;;;;;;;28.23;21.58;;;17.30;99.90;;;;;;5071656;28;20373;-46
2023/09/18 05:03:22;;;;;;;26.50;21.25;;;17.30;99.90;;;;;;5071947;28;20059;-47
2023/09/18 05:05:49;;;;;;;26.67;21.75;;;17.20;99.90;;;;;;5071910;28;20389;-49
2023/09/18 05:08:14;;;;;;;25.63;20.92;;;17.20;99.90;;;;;;5072339;28;20032;-46
2023/09/18 05:10:40;;;;;;;27.00;20.98;;;17.20;99.90;;;;;;5071798;28;20464;-46
2023/09/18 05:13:06;;;;;;;29.25;21.60;;;17.30;99.90;;;;;;5071801;28;20044;-45
2023/09/18 05:15:33;;;;;;;29.30;21.75;;;17.30;99.90;;;;;;5073580;28;20041;-49
2023/09/18 05:17:59;;;;;;;27.10;20.73;;;17.40;99.90;;;;;;5076071;28;20566;-46
2023/09/18 05:20:27;;;;;;;26.40;20.05;;;17.40;99.90;;;;;;5075903;28;20033;-47
2023/09/18 05:22:55;;;;;;;22.67;20.05;;;17.30;99.90;;;;;;5076074;28;20454;-49
2023/09/18 05:25:25;;;;;;;26.83;21.38;;;17.40;99.90;;;;;;5074801;28;20052;-46
2023/09/18 05:27:56;;;;;;;25.50;20.25;;;17.40;99.90;;;;;;5074695;28;20447;-46
2023/09/18 05:30:28;;;;;;;26.37;20.30;;;17.20;99.90;;;;;;5075879;28;20036;-49
2023/09/18 05:32:54;;;;;;;24.35;19.55;;;17.40;99.90;;;;;;5075739;28;20049;-46
2023/09/18 05:35:21;;;;;;;25.02;19.60;;;17.30;99.90;;;;;;5075740;28;20033;-46
2023/09/18 05:37:46;;;;;;;25.77;19.77;;;17.40;99.90;;;;;;5075554;28;20041;-48
2023/09/18 05:40:13;;;;;;;24.60;18.95;;;17.30;99.90;;;;;;5075456;28;20048;-49
2023/09/18 05:42:43;;;;;;;24.88;19.58;;;17.50;99.90;;;;;;5075349;28;20055;-50
2023/09/18 05:45:11;;;;;;;23.17;18.52;;;17.50;99.90;;;;;;5075350;28;20044;-49
2023/09/18 05:47:38;;;;;;;22.55;18.95;;;17.50;99.90;;;;;;5075572;28;20068;-47
2023/09/18 05:50:07;;;;;;;24.30;17.98;;;17.50;99.90;;;;;;5074994;28;20541;-46
2023/09/18 05:52:34;;;;;;;25.42;19.42;;;17.40;99.90;;;;;;5075541;28;20044;-46
2023/09/18 05:55:00;;;;;;;22.35;18.08;;;17.40;99.90;;;;;;5075209;28;20036;-47
2023/09/18 05:57:27;;;;;;;24.98;17.80;;;17.40;99.90;;;;;;5075422;28;20492;-51
2023/09/18 05:59:55;;;;;;;24.48;17.02;;;17.50;99.90;;;;;;5074814;28;20519;-46
2023/09/18 06:02:21;;;;;;;22.80;17.70;;;17.50;99.90;;;;;;5073772;28;20052;-46
2023/09/18 06:04:47;;;;;;;24.20;18.20;;;17.50;99.90;;;;;;5074999;28;20063;-47
2023/09/18 06:07:13;;;;;;;23.58;17.63;;;17.60;99.90;;;;;;5075160;28;20068;-46
2023/09/18 06:09:39;;;;;;;26.38;18.85;;;17.60;99.90;;;;;;5074996;28;20193;-50
2023/09/18 06:12:05;;;;;;;21.77;16.83;;;17.50;99.90;;;;;;5074923;28;20037;-46
2023/09/18 06:14:34;;;;;;;25.58;18.25;;;17.50;99.90;;;;;;5074723;28;20078;-45
2023/09/18 06:16:59;;;;;;;23.23;17.73;;;17.60;99.90;;;;;;5073665;28;20480;-46
2023/09/18 06:19:25;;;;;;;24.17;16.73;;;17.50;99.90;;;;;;5074963;28;20040;-45
2023/09/18 06:21:50;;;;;;;22.10;17.70;;;17.50;99.90;;;;;;5056716;28;20072;-46
2023/09/18 06:24:16;;;;;;;23.23;16.23;;;17.50;99.90;;;;;;5073339;28;20052;-46
2023/09/18 06:26:42;;;;;;;21.83;15.95;;;17.40;99.90;;;;;;5073708;28;20045;-45
2023/09/18 06:29:09;;;;;;;21.15;16.27;;;17.60;99.90;;;;;;5074697;28;20037;-46
2023/09/18 06:31:35;;;;;;;21.23;16.80;;;17.60;99.90;;;;;;5073202;28;20045;-46
2023/09/18 06:34:01;;;;;;;19.02;15.75;;;17.70;99.90;;;;;;5074786;28;20086;-45
2023/09/18 06:36:26;;;;;;;20.00;15.70;;;17.60;99.90;;;;;;5074531;28;20459;-47
2023/09/18 06:38:53;;;;;;;19.33;15.23;;;17.60;99.90;;;;;;5074389;28;20040;-49
2023/09/18 06:41:18;;;;;;;19.50;15.15;;;17.70;99.90;;;;;;5074688;28;20047;-60
2023/09/18 06:43:44;;;;;;;18.40;14.07;;;17.60;99.90;;;;;;5074314;28;20036;-59
2023/09/18 06:46:10;;;;;;;19.55;14.15;;;17.70;99.90;;;;;;5074454;28;20044;-60
2023/09/18 06:48:36;;;;;;;18.50;13.80;;;17.70;99.90;;;;;;5074380;28;20370;-59
2023/09/18 06:51:02;;;;;;;22.02;14.07;;;17.60;99.90;;;;;;5074414;28;20109;-60
2023/09/18 06:53:28;;;;;;;19.83;13.80;;;17.80;99.90;;;;;;5074110;28;20044;-60
2023/09/18 06:55:54;;;;;;;17.73;13.75;;;17.70;99.90;;;;;;5074220;28;20097;-60
2023/09/18 06:58:20;;;;;;;17.65;13.65;;;17.80;99.90;;;;;;5074084;28;20446;-59
2023/09/18 07:00:46;;;;;;;20.65;13.68;;;17.90;99.90;;;;;;5074042;28;20045;-60
2023/09/18 07:03:12;;;;;;;21.90;14.00;;;18.00;99.90;;;;;;5074088;28;20044;-60
2023/09/18 07:05:39;;;;;;;21.02;15.10;;;18.00;99.90;;;;;;5074132;28;20500;-59
2023/09/18 07:08:09;;;;;;;18.83;14.75;;;18.10;99.90;;;;;;5073821;28;20040;-59
2023/09/18 07:10:35;;;;;;;17.65;14.15;;;18.20;99.90;;;;;;5073990;28;20037;-60
2023/09/18 07:13:01;;;;;;;23.30;15.85;;;18.00;99.90;;;;;;5073708;28;20051;-60
2023/09/18 07:15:27;;;;;;;21.08;15.80;;;18.10;99.90;;;;;;5073809;28;20040;-59
2023/09/18 07:17:52;;;;;;;23.33;17.50;;;18.20;99.90;;;;;;5072719;28;20123;-59
2023/09/18 07:20:18;;;;;;;21.27;16.33;;;18.10;99.90;;;;;;5073688;28;20070;-60
2023/09/18 07:22:47;;;;;;;22.33;16.35;;;18.40;99.90;;;;;;5073631;28;20109;-60
2023/09/18 07:25:13;;;;;;;21.85;15.65;;;18.30;99.90;;;;;;5072268;28;20040;-59
2023/09/18 07:27:43;;;;;;;19.98;15.13;;;18.30;99.90;;;;;;5073548;28;20040;-60
2023/09/18 07:30:15;;;;;;;20.33;15.40;;;18.20;99.90;;;;;;5073585;28;20123;-59
2023/09/18 07:32:42;;;;;;;19.85;14.98;;;18.30;99.90;;;;;;5073661;28;20098;-59
2023/09/18 07:35:09;;;;;;;21.73;15.10;;;18.30;99.90;;;;;;5072202;28;20501;-60
2023/09/18 07:37:35;;;;;;;23.05;15.60;;;18.40;99.90;;;;;;5073673;28;20460;-60
2023/09/18 07:40:06;;;;;;;21.63;15.57;;;18.40;99.90;;;;;;5072232;28;20047;-46
2023/09/18 07:42:32;;;;;;;20.05;14.98;;;18.20;99.90;;;;;;5073442;28;20051;-47
2023/09/18 07:44:58;;;;;;;24.15;14.82;;;18.30;99.90;;;;;;5073378;28;20041;-47
2023/09/18 07:47:23;;;;;;;20.88;15.00;;;18.30;99.90;;;;;;5073078;28;20036;-59
2023/09/18 07:49:50;;;;;;;23.27;15.25;;;18.30;99.90;;;;;;5072911;28;20123;-58
2023/09/18 07:52:16;;;;;;;22.77;16.08;;;18.10;99.90;;;;;;5072987;28;20044;-59
2023/09/18 07:54:43;;;;;;;23.50;15.68;;;18.20;99.90;;;;;;5071910;28;20037;-59
2023/09/18 07:57:09;;;;;;;22.08;15.55;;;18.20;99.90;;;;;;5073078;28;20146;-59
2023/09/18 07:59:38;;;;;;;19.67;15.10;;;18.10;99.90;;;;;;5072906;28;20493;-59
2023/09/18 08:02:05;;;;;;;19.45;15.40;;;18.20;99.90;;;;;;5072642;28;20127;-59
2023/09/18 08:04:34;;;;;;;22.80;16.08;;;18.20;99.90;;;;;;5072785;28;20049;-60
2023/09/18 08:07:00;;;;;;;20.92;14.95;;;18.10;99.90;;;;;;5072808;28;20055;-59
2023/09/18 08:09:29;;;;;;;23.42;15.05;;;18.20;99.90;;;;;;5072918;28;20037;-60
2023/09/18 08:11:55;;;;;;;21.27;15.88;;;18.10;99.90;;;;;;5072951;28;20139;-59
2023/09/18 08:14:24;;;;;;;22.95;15.60;;;18.10;99.90;;;;;;5072649;28;20039;-60
2023/09/18 08:16:57;;;;;;;19.98;13.73;;;18.00;99.90;;;;;;5072496;28;20532;-59
2023/09/18 08:19:23;;;;;;;20.60;14.73;;;18.20;99.90;;;;;;5072694;28;20093;-51
2023/09/18 08:21:49;;;;;;;21.25;14.75;;;18.10;99.90;;;;;;5072297;28;20485;-46
2023/09/18 08:24:14;;;;;;;20.95;14.05;;;18.00;99.90;;;;;;5072485;28;20062;-46
2023/09/18 08:26:40;;;;;;;18.17;13.40;;;18.10;99.90;;;;;;5072583;28;20115;-46
2023/09/18 08:29:06;;;;;;;20.70;13.32;;;18.00;99.90;;;;;;5072620;28;20036;-49
2023/09/18 08:31:32;;;;;;;19.65;14.07;;;17.90;99.90;;;;;;5072602;28;20044;-50
2023/09/18 08:33:58;;;;;;;19.80;13.35;;;18.00;99.90;;;;;;5072438;28;20389;-48
2023/09/18 08:36:24;;;;;;;18.10;12.75;;;18.10;99.90;;;;;;5072338;28;20040;-48
2023/09/18 08:38:50;;;;;;;20.00;14.40;;;18.30;99.90;;;;;;5072534;28;20045;-46
2023/09/18 08:41:19;;;;;;;20.42;13.10;;;17.90;99.90;;;;;;5072400;28;20040;-48
2023/09/18 08:43:47;;;;;;;18.00;12.95;;;18.20;99.90;;;;;;5072300;28;20033;-47
2023/09/18 08:46:13;;;;;;;18.60;13.10;;;18.30;99.90;;;;;;5072190;28;20128;-46
2023/09/18 08:48:40;;;;;;;21.02;13.80;;;18.30;99.90;;;;;;5072042;28;20132;-46
2023/09/18 08:51:06;;;;;;;18.75;12.80;;;18.10;99.90;;;;;;5071834;28;20094;-49
2023/09/18 08:53:34;;;;;;;21.48;12.70;;;18.40;99.90;;;;;;5072296;28;20043;-46
2023/09/18 08:56:03;;;;;;;18.77;12.93;;;18.20;99.90;;;;;;5072104;28;20040;-46
2023/09/18 08:58:39;;;;;;;18.63;13.73;;;18.50;99.90;;;;;;5071984;28;20466;-47
2023/09/18 09:01:09;;;;;;;17.90;12.85;;;18.20;99.90;;;;;;5070621;28;20057;-47
2023/09/18 09:03:47;;;;;;;19.73;12.90;;;18.30;99.90;;;;;;5071899;28;20560;-48
2023/09/18 09:06:13;;;;;;;20.83;13.68;;;18.20;99.90;;;;;;5072047;28;20045;-45
2023/09/18 09:08:39;;;;;;;20.00;13.80;;;18.30;99.90;;;;;;5071899;28;20129;-46
2023/09/18 09:11:05;;;;;;;21.92;14.48;;;18.50;99.90;;;;;;5071949;28;20043;-46
2023/09/18 09:13:31;;;;;;;20.88;14.20;;;18.60;99.90;;;;;;5072180;28;20423;-46
2023/09/18 09:15:58;;;;;;;21.20;14.40;;;18.70;99.90;;;;;;5071882;28;20098;-49
2023/09/18 09:18:26;;;;;;;20.92;15.63;;;18.40;99.90;;;;;;5072225;28;20086;-46
2023/09/18 09:20:58;;;;;;;22.60;16.63;;;18.70;99.90;;;;;;5071735;28;20103;-49
2023/09/18 09:23:25;;;;;;;21.88;16.00;;;18.40;99.90;;;;;;5070487;28;20127;-48
2023/09/18 09:25:51;;;;;;;23.90;15.77;;;18.50;99.90;;;;;;5072039;28;20082;-48
2023/09/18 09:28:28;;;;;;;22.17;16.38;;;18.40;99.90;;;;;;5070332;28;20033;-49
2023/09/18 09:31:03;;;;;;;23.27;16.38;;;18.80;99.90;;;;;;5071500;28;20114;-48
2023/09/18 09:33:30;;;;;;;21.80;16.33;;;18.80;99.90;;;;;;5071719;28;20100;-48
2023/09/18 09:35:56;;;;;;;26.20;16.88;;;18.90;99.90;;;;;;5071521;28;20051;-47
2023/09/18 09:38:33;;;;;;;24.55;16.67;;;19.00;99.90;;;;;;5071867;28;20032;-47
2023/09/18 09:41:06;;;;;;;24.27;16.98;;;18.90;99.90;;;;;;5070201;28;20527;-60
2023/09/18 09:43:33;;;;;;;22.13;16.25;;;19.00;99.90;;;;;;5071623;28;20115;-60
2023/09/18 09:46:02;;;;;;;21.67;15.68;;;19.00;99.90;;;;;;5070527;28;20443;-59
2023/09/18 09:48:31;;;;;;;21.85;15.63;;;19.00;99.90;;;;;;5071730;28;20064;-60
2023/09/18 09:51:00;;;;;;;23.38;16.25;;;18.80;99.90;;;;;;5071686;28;20109;-59
2023/09/18 09:53:44;;;;;;;24.27;15.55;;;18.90;99.90;;;;;;5071359;28;20044;-59
2023/09/18 09:56:10;;;;;;;22.27;15.65;;;19.00;99.90;;;;;;5071707;28;20068;-60
2023/09/18 09:58:36;;;;;;;21.10;15.25;;;19.00;99.90;;;;;;5071462;28;20538;-60
2023/09/18 10:01:10;;;;;;;21.88;16.50;;;18.90;99.90;;;;;;5071503;28;20127;-59
2023/09/18 10:03:39;;;;;;;21.85;16.55;;;19.20;99.90;;;;;;5074552;28;20043;-60
2023/09/18 10:06:06;;;;;;;23.33;17.17;;;19.40;99.90;;;;;;5075304;28;20044;-59
2023/09/18 10:08:33;;;;;;;22.02;17.65;;;19.20;99.90;;;;;;5075374;28;20071;-60
2023/09/18 10:11:09;;;;;;;20.75;16.23;;;19.40;99.90;;;;;;5074889;28;20076;-60
2023/09/18 10:13:43;;;;;;;22.08;18.17;;;19.50;99.90;;;;;;5073632;28;20036;-60
2023/09/18 10:16:10;;;;;;;25.23;18.45;;;19.40;99.90;;;;;;5074960;28;20033;-60
2023/09/18 10:18:44;;;;;;;22.83;17.52;;;19.70;99.90;;;;;;5074770;28;20076;-60
2023/09/18 10:21:31;;;;;;;20.60;17.27;;;19.80;99.90;;;;;;5074974;28;20036;-60
2023/09/18 10:24:12;;;;;;;22.67;17.63;;;19.90;99.90;;;;;;5074879;28;20044;-59
2023/09/18 10:26:48;;;;;;;22.80;18.23;;;19.90;99.90;;;;;;5074621;28;20049;-60
2023/09/18 10:29:18;;;;;;;24.50;18.48;;;19.80;99.90;;;;;;5074784;28;20056;-59
2023/09/18 10:31:45;;;;;;;21.58;17.52;;;20.00;99.90;;;;;;5074632;28;20127;-60
2023/09/18 10:34:13;;;;;;;22.73;18.67;;;20.10;99.90;;;;;;5074488;28;20480;-60
2023/09/18 10:36:41;;;;;;;22.63;17.63;;;20.00;99.90;;;;;;5074530;28;20044;-48
2023/09/18 10:39:12;;;;;;;22.40;17.27;;;20.00;99.90;;;;;;5074362;28;20079;-46
2023/09/18 10:41:38;;;;;;;20.70;16.02;;;20.20;99.90;;;;;;5073164;28;20127;-48
2023/09/18 10:44:04;;;;;;;19.40;16.02;;;20.30;99.90;;;;;;5074682;28;20044;-46
2023/09/18 10:46:32;;;;;;;18.55;16.25;;;20.30;99.90;;;;;;5074512;28;20485;-46
2023/09/18 10:49:03;;;;;;;19.65;14.75;;;20.30;99.90;;;;;;5074480;28;20072;-47
2023/09/18 10:51:31;;;;;;;17.10;13.50;;;20.30;99.90;;;;;;5074297;28;20047;-46
2023/09/18 10:53:57;;;;;;;18.52;14.63;;;20.40;99.90;;;;;;5074365;28;20036;-47
2023/09/18 10:56:24;;;;;;;16.55;13.68;;;20.50;99.90;;;;;;5072842;28;20044;-47
2023/09/18 10:59:00;;;;;;;17.67;13.18;;;20.50;99.90;;;;;;5074359;28;20048;-50
2023/09/18 11:01:29;;;;;;;14.30;12.18;;;20.80;99.90;;;;;;5073882;28;20052;-46
2023/09/18 11:04:01;;;;;;;15.48;11.52;;;20.60;99.90;;;;;;5074321;28;20366;-46
2023/09/18 11:06:28;;;;;;;12.95;10.02;;;20.50;99.90;;;;;;5073901;28;20040;-47
2023/09/18 11:09:06;;;;;;;14.25;11.15;;;20.60;99.90;;;;;;5074086;28;20040;-50
2023/09/18 11:11:35;;;;;;;12.52;9.95;;;20.80;99.90;;;;;;5072954;28;20083;-48
2023/09/18 11:14:02;;;;;;;11.50;9.75;;;21.00;99.90;;;;;;5073556;28;20045;-50
2023/09/18 11:16:27;;;;;;;12.43;9.13;;;21.20;99.90;;;;;;5073707;28;20393;-47
2023/09/18 11:19:00;;;;;;;11.27;8.70;;;21.20;99.90;;;;;;5073738;28;20045;-60
2023/09/18 11:21:32;;;;;;;12.10;9.55;;;21.30;99.90;;;;;;5073876;28;20044;-60
2023/09/18 11:24:10;;;;;;;;;;;21.40;99.90;;;;;;5073893;28;20036;-60
2023/09/18 11:26:40;;;;;;;9.82;7.93;;;21.50;99.90;;;;;;5072480;28;20297;-60
2023/09/18 11:29:16;;;;;;;9.93;7.00;;;21.60;86.30;;;;;;5073831;28;20125;-60
2023/09/18 11:31:54;;;;;;;9.85;6.85;;;21.60;72.20;;;;;;5073732;28;20044;-60
2023/09/18 11:34:34;;;;;;;8.68;6.53;;;21.70;52.60;;;;;;5073756;28;20047;-60
2023/09/18 11:37:03;;;;;;;11.00;6.13;;;21.70;39.60;;;;;;5073387;28;20044;-60
2023/09/18 11:39:43;;;;;;;8.02;5.40;;;21.80;38.50;;;;;;5073279;28;20052;-60
2023/09/18 11:42:13;;;;;;;8.95;6.07;;;21.80;39.10;;;;;;5073433;28;20056;-60
2023/09/18 11:44:46;;;;;;;7.88;5.53;;;21.60;37.00;;;;;;5073191;28;20563;-60
2023/09/18 11:47:22;;;;;;;8.95;5.75;;;21.50;34.20;;;;;;5073341;28;20047;-60
2023/09/18 11:49:54;;;;;;;8.02;4.60;;;21.30;34.30;;;;;;5072960;28;20401;-60
2023/09/18 11:52:24;;;;;;;11.48;5.18;;;21.40;47.20;;;;;;5072956;28;20161;-60
2023/09/18 11:54:50;;;;;;;8.88;4.97;;;21.40;41.80;;;;;;5072864;28;20044;-59
2023/09/18 11:57:18;;;;;;;7.20;4.25;;;21.30;27.60;;;;;;5073249;28;20033;-60
2023/09/18 11:59:46;;;;;;;8.60;5.20;;;21.30;39.80;;;;;;5073308;28;20127;-60
2023/09/18 12:02:35;;;;;;;9.55;4.30;;;21.20;34.30;;;;;;5072754;28;20506;-60
2023/09/18 12:05:18;;;;;;;17.95;6.55;;;21.20;46.80;;;;;;5072747;28;20480;-60
2023/09/18 12:07:45;;;;;;;8.27;4.82;;;21.10;42.60;;;;;;5072974;28;20052;-60
2023/09/18 12:10:20;;;;;;;16.10;5.78;;;21.20;48.10;;;;;;5072602;28;20393;-60
2023/09/18 12:12:47;;;;;;;6.80;4.13;;;21.20;33.80;;;;;;5072675;28;20047;-60
2023/09/18 12:15:15;;;;;;;8.82;4.50;;;21.40;42.30;;;;;;5072477;28;20036;-58
2023/09/18 12:17:41;;;;;;;8.30;4.70;;;21.60;38.40;;;;;;5072805;28;20045;-60
2023/09/18 12:20:14;;;;;;;10.70;4.75;;;21.60;31.80;;;;;;5072443;28;20047;-59
2023/09/18 12:22:39;;;;;;;9.07;4.97;;;21.60;33.90;;;;;;5072507;28;20086;-60
2023/09/18 12:25:24;;;;;;;7.85;4.95;;;21.50;34.80;;;;;;5072166;28;20044;-60
2023/09/18 12:27:54;;;;;;;9.23;5.05;;;21.60;42.70;;;;;;5072688;28;20189;-60
2023/09/18 12:30:22;;;;;;;10.05;5.88;;;21.50;46.40;;;;;;5072302;28;20052;-60
2023/09/18 12:32:51;;;;;;;8.50;5.10;;;21.50;43.00;;;;;;5072348;28;20504;-60